YBBNYBAS

Guest
Details From YBBN - Brisbane Intl
To YBAS - Alice Springs
Flight Number -
Tags decoded
Created
Modified
Stats Distance 1,062 nm / 1,968 km
Max Altitude 0 ft / 0 m
Waypoints 2
Social Downloads 0
Likes 0
Share VATSIM

Download

Looking for another format? Having issues loading an existing format? Contact us
Advertisement - Login to hide

Notes

Requested: YBBN G326 T11 YBAS Unmatched points: G326 T11

Route

YBBN YBAS

ID Type Via Altitude Latitude Longitude Leg Dist Tot Dist Heading (true) Name
O YBBN APT - 0 ft / 0 m -27.37571˚ 153.12771˚ - 0 nm - Brisbane Intl
O YBAS APT - 0 ft / 0 m -23.80445˚ 133.89522˚ 1062 nm 1062 nm 277° / 286° Alice Springs

Altitude Profile

Advertisement - Login to hide

Weather


0- 5 10 15 20 25 30 35+ Temperature / ° C

Clouds and Precipitation
Forecast for 2018-06-18 00:00 UTC. Updated 4 hours ago

Ground ~20,000 ft ~40,000 ft Winds

YBBN

Details ICAO YBBN (BNE)
Name Brisbane Intl
Region Australia
Timezone Australia/Brisbane (UTC+10.0)
Stats Elevation 12 ft / 4 m (AMSL)
Location -27.375714° 153.127710°
Runways 2
Magnetic Variation 10.987° E

METAR

YBBN 180100Z 25019KT 9999 FEW045 16/M01 Q1018 FM0100 MOD TURB BLW 5000FT

Decode

TAF

TAF YBBN 172309Z 1800/1906 25016G26KT CAVOK FM180800 24014KT CAVOK FM181300 26010KT CAVOK FM182300 24013KT CAVOK

Decode

Departure Runways

ID Width Length Bearing (true) Bearing (mag) Surface Threshold Offset Overrun Length
01 148 ft / 45 m 11,805 ft / 3,598 m 26.93° 15.94° Asphalt 197 ft / 60 m 0 ft / 0 m
14 98 ft / 30 m 5,787 ft / 1,764 m 145.66° 134.67° Asphalt 197 ft / 60 m 0 ft / 0 m
19 148 ft / 45 m 11,805 ft / 3,598 m 206.92° 195.93° Asphalt 0 ft / 0 m 0 ft / 0 m
32 98 ft / 30 m 5,787 ft / 1,764 m 325.66° 314.67° Asphalt 197 ft / 60 m 0 ft / 0 m

YBAS

Details ICAO YBAS (ASP)
Name Alice Springs
Region Australia
Timezone Australia/Darwin (UTC+9.5)
Stats Elevation 1,789 ft / 545 m (AMSL)
Location -23.804452° 133.895220°
Runways 2
Magnetic Variation 4.569° E

METAR

YBAS 180100Z 09017KT CAVOK 10/M01 Q1028

Decode

TAF

TAF YBAS 172306Z 1800/1824 09014KT CAVOK FM180800 07006KT CAVOK FM181500 30005KT CAVOK

Decode

Destination Runways

ID Width Length Bearing (true) Bearing (mag) Surface Threshold Offset Overrun Length
12 148 ft / 45 m 7,996 ft / 2,437 m 120.40° 115.83° Asphalt 0 ft / 0 m 0 ft / 0 m
17 59 ft / 18 m 3,729 ft / 1,137 m 178.24° 173.67° Asphalt 0 ft / 0 m 0 ft / 0 m
30 148 ft / 45 m 7,996 ft / 2,437 m 300.40° 295.83° Asphalt 0 ft / 0 m 0 ft / 0 m
35 59 ft / 18 m 3,729 ft / 1,137 m 358.24° 353.67° Asphalt 0 ft / 0 m 0 ft / 0 m

Approach Navaids

Runway Type Ident Frequency Range Bearing (true) Bearing (mag) Slope Elevation
12 Localiser IAS 109.90 MHz 18 nm / 33 km 120.58° 116.02° - 1,789 ft / 545 m (AMSL)
12 Glidescope IAS 109.90 MHz 10 nm / 19 km 120.40° 115.83° 3.00° 1,789 ft / 545 m (AMSL)

Popular Alternatives